Time;durP1;ratioP1;P1;durP2;ratioP2;P2;SDS_P1;SDS_P2;PMS_P1;PMS_P2;Temp;Humidity;BMP_temperature;BMP_pressure;BME280_temperature;BME280_humidity;BME280_pressure;Samples;Min_cycle;Max_cycle;Signal;HPM_P1;HPM_P2
2023/01/22 00:00:10;;;;;;;2.50;2.40;;;;;;;;;;5017029;28;20057;-92
2023/01/22 00:02:39;;;;;;;3.13;2.92;;;;;;;;;;5016949;28;20045;-93
2023/01/22 00:05:06;;;;;;;4.50;3.17;;;;;;;;;;4997267;28;20578;-92
2023/01/22 00:07:32;;;;;;;3.55;3.25;;;;;;;;;;4998018;28;20104;-93
2023/01/22 00:09:59;;;;;;;2.00;1.90;;;;;;;;;;4997922;28;20058;-93
2023/01/22 00:12:26;;;;;;;4.55;4.25;;;;;;;;;;4997928;28;20081;-92
2023/01/22 00:14:53;;;;;;;2.45;2.30;;;;;;;;;;4997484;28;20061;-92
2023/01/22 00:17:19;;;;;;;2.65;2.55;;;;;;;;;;4997964;28;20046;-91
2023/01/22 00:19:47;;;;;;;2.58;2.38;;;;;;;;;;4997782;28;20607;-92
2023/01/22 00:22:14;;;;;;;2.08;1.98;;;;;;;;;;4997175;28;20054;-92
2023/01/22 00:24:40;;;;;;;2.20;2.08;;;;;;;;;;4997011;28;20496;-93
2023/01/22 00:27:07;;;;;;;2.78;2.63;;;;;;;;;;4997446;28;20100;-92
2023/01/22 00:29:33;;;;;;;2.25;2.15;;;;;;;;;;4997584;28;20105;-93
2023/01/22 00:32:00;;;;;;;1.95;1.85;;;;;;;;;;4997152;28;20078;-89
2023/01/22 00:34:26;;;;;;;1.40;1.30;;;;;;;;;;4997203;28;20490;-90
2023/01/22 00:36:54;;;;;;;1.65;1.55;;;;;;;;;;4996540;28;20042;-91
2023/01/22 00:39:20;;;;;;;6.13;3.05;;;;;;;;;;5015460;28;20050;-90
2023/01/22 00:41:48;;;;;;;5.38;2.33;;;;;;;;;;5015702;28;20557;-90
2023/01/22 00:44:15;;;;;;;4.22;2.80;;;;;;;;;;5016558;28;20100;-91
2023/01/22 00:46:41;;;;;;;2.65;2.55;;;;;;;;;;5016741;28;20057;-93
2023/01/22 00:49:08;;;;;;;1.63;1.52;;;;;;;;;;5016008;28;20053;-91
2023/01/22 00:51:35;;;;;;;1.77;1.67;;;;;;;;;;5017818;28;20096;-92
2023/01/22 00:54:03;;;;;;;1.98;1.88;;;;;;;;;;5016331;28;20050;-92
2023/01/22 00:56:30;;;;;;;1.52;1.42;;;;;;;;;;5017004;28;20046;-94
2023/01/22 00:58:56;;;;;;;2.15;2.05;;;;;;;;;;5020001;28;20077;-93
2023/01/22 01:01:22;;;;;;;0.90;0.90;;;;;;;;;;5016926;28;20104;-92
2023/01/22 01:03:49;;;;;;;2.10;2.00;;;;;;;;;;5015621;28;20188;-90
2023/01/22 01:06:17;;;;;;;2.13;2.03;;;;;;;;;;5015807;28;20049;-90
2023/01/22 01:08:43;;;;;;;2.53;2.42;;;;;;;;;;5017898;28;20050;-90
2023/01/22 01:11:13;;;;;;;2.53;2.42;;;;;;;;;;5017286;28;20050;-91
2023/01/22 01:13:41;;;;;;;2.28;2.17;;;;;;;;;;5020992;28;20045;-93
2023/01/22 01:16:09;;;;;;;3.03;2.17;;;;;;;;;;5016702;28;20046;-92
2023/01/22 01:18:35;;;;;;;1.63;1.52;;;;;;;;;;5022256;28;20120;-90
2023/01/22 01:21:03;;;;;;;2.58;2.47;;;;;;;;;;5017005;28;20049;-91
2023/01/22 01:23:29;;;;;;;2.42;2.15;;;;;;;;;;5015860;28;20486;-89
2023/01/22 01:25:56;;;;;;;1.90;1.80;;;;;;;;;;5015227;28;20050;-89
2023/01/22 01:28:24;;;;;;;1.05;1.05;;;;;;;;;;5014808;28;20054;-90
2023/01/22 01:30:51;;;;;;;2.72;2.63;;;;;;;;;;5015174;28;20108;-92
2023/01/22 01:33:17;;;;;;;2.85;2.75;;;;;;;;;;5014857;28;20053;-91
2023/01/22 01:35:44;;;;;;;1.27;1.27;;;;;;;;;;5015341;28;20050;-91
2023/01/22 01:38:10;;;;;;;1.35;1.35;;;;;;;;;;5015391;28;20046;-91
2023/01/22 01:40:41;;;;;;;5.15;1.88;;;;;;;;;;5014948;28;20065;-91
2023/01/22 01:43:11;;;;;;;1.33;1.33;;;;;;;;;;5014993;28;20052;-91
2023/01/22 01:45:40;;;;;;;3.60;2.55;;;;;;;;;;5014918;28;20048;-91
2023/01/22 01:48:11;;;;;;;2.15;2.05;;;;;;;;;;5014575;28;20050;-92
2023/01/22 01:50:40;;;;;;;3.55;1.75;;;;;;;;;;5015094;28;20050;-91
2023/01/22 01:53:07;;;;;;;2.75;2.55;;;;;;;;;;5014911;28;20077;-93
2023/01/22 01:55:34;;;;;;;3.30;3.10;;;;;;;;;;5015288;28;20478;-93
2023/01/22 01:58:05;;;;;;;3.33;3.13;;;;;;;;;;5015313;28;20050;-93
2023/01/22 02:00:33;;;;;;;2.15;1.73;;;;;;;;;;5015534;28;20050;-93
2023/01/22 02:03:01;;;;;;;2.50;2.40;;;;;;;;;;5015415;28;20045;-92
2023/01/22 02:05:31;;;;;;;1.27;1.27;;;;;;;;;;5015174;28;20502;-94
2023/01/22 02:07:58;;;;;;;1.80;1.67;;;;;;;;;;5014941;28;20050;-94
2023/01/22 02:10:24;;;;;;;1.10;1.10;;;;;;;;;;5015020;28;20045;-92
2023/01/22 02:12:51;;;;;;;3.17;2.38;;;;;;;;;;5017441;28;20050;-92
2023/01/22 02:15:18;;;;;;;1.88;1.77;;;;;;;;;;5034812;28;20069;-90
2023/01/22 02:17:45;;;;;;;1.90;1.23;;;;;;;;;;5034334;28;20073;-91
2023/01/22 02:20:13;;;;;;;2.35;2.17;;;;;;;;;;5029726;28;20079;-93
2023/01/22 02:22:41;;;;;;;2.65;2.45;;;;;;;;;;4985233;28;20062;-91
2023/01/22 02:25:08;;;;;;;3.08;2.63;;;;;;;;;;4975354;28;20059;-91
2023/01/22 02:27:35;;;;;;;2.50;2.40;;;;;;;;;;4974407;28;20065;-91
2023/01/22 02:30:01;;;;;;;1.95;1.85;;;;;;;;;;4975606;28;20050;-89
2023/01/22 02:32:28;;;;;;;1.75;1.65;;;;;;;;;;4975083;28;20113;-90
2023/01/22 02:34:55;;;;;;;3.22;3.03;;;;;;;;;;4975330;28;20078;-90
2023/01/22 02:37:21;;;;;;;1.65;1.55;;;;;;;;;;4975472;28;20050;-90
2023/01/22 02:39:49;;;;;;;3.53;2.58;;;;;;;;;;4975412;28;20043;-90
2023/01/22 02:42:16;;;;;;;1.42;1.33;;;;;;;;;;4974934;28;20054;-89
2023/01/22 02:44:42;;;;;;;0.98;0.95;;;;;;;;;;4975109;28;20051;-89
2023/01/22 02:47:09;;;;;;;1.60;1.50;;;;;;;;;;4975046;28;20055;-89
2023/01/22 02:49:35;;;;;;;2.08;1.75;;;;;;;;;;4975277;28;20452;-89
2023/01/22 02:52:02;;;;;;;1.27;1.25;;;;;;;;;;4975163;28;20058;-90
2023/01/22 02:54:28;;;;;;;1.77;1.67;;;;;;;;;;4975281;28;20459;-90
2023/01/22 02:56:56;;;;;;;4.32;1.17;;;;;;;;;;4993615;28;20089;-89
2023/01/22 02:59:23;;;;;;;1.15;1.13;;;;;;;;;;4997878;28;20054;-90
2023/01/22 03:01:50;;;;;;;0.80;0.80;;;;;;;;;;5012936;28;20046;-92
2023/01/22 03:04:17;;;;;;;1.05;1.02;;;;;;;;;;5009294;28;20056;-90
2023/01/22 03:06:45;;;;;;;1.02;1.02;;;;;;;;;;4994234;28;20389;-91
2023/01/22 03:09:12;;;;;;;0.57;0.57;;;;;;;;;;4994474;28;20046;-91
2023/01/22 03:11:39;;;;;;;1.65;1.58;;;;;;;;;;4994692;28;20455;-91
2023/01/22 03:22:19;;;;;;;3.45;2.00;;;;;;;;;;4975071;28;20066;-92
2023/01/22 03:24:50;;;;;;;1.20;1.20;;;;;;;;;;4974833;28;20047;-91
2023/01/22 03:27:17;;;;;;;2.78;2.53;;;;;;;;;;4975051;28;20123;-91
2023/01/22 03:29:45;;;;;;;1.45;1.42;;;;;;;;;;4975324;28;20117;-90
2023/01/22 03:32:12;;;;;;;2.03;1.92;;;;;;;;;;4974374;28;20072;-89
2023/01/22 03:34:39;;;;;;;1.30;1.20;;;;;;;;;;4974658;28;20083;-91
2023/01/22 03:37:06;;;;;;;1.52;1.27;;;;;;;;;;4975260;28;20130;-91
2023/01/22 03:39:32;;;;;;;2.42;2.33;;;;;;;;;;4976679;28;20058;-89
2023/01/22 03:41:59;;;;;;;1.73;1.63;;;;;;;;;;4978110;28;20047;-91
2023/01/22 03:44:25;;;;;;;1.25;1.15;;;;;;;;;;4978340;28;20054;-90
2023/01/22 03:46:53;;;;;;;2.47;2.38;;;;;;;;;;4986599;28;20108;-91
2023/01/22 03:49:20;;;;;;;1.88;1.77;;;;;;;;;;4998687;28;20452;-90
2023/01/22 03:51:47;;;;;;;0.85;0.85;;;;;;;;;;4997769;28;20050;-91
2023/01/22 03:54:14;;;;;;;1.15;1.13;;;;;;;;;;4998019;28;20120;-90
2023/01/22 03:56:41;;;;;;;1.27;1.27;;;;;;;;;;5014715;28;20035;-90
2023/01/22 03:59:08;;;;;;;1.05;1.05;;;;;;;;;;5012197;28;20047;-90
2023/01/22 04:01:35;;;;;;;1.92;1.65;;;;;;;;;;4994515;28;20464;-89
2023/01/22 04:04:03;;;;;;;1.95;1.85;;;;;;;;;;4978375;28;20050;-91
2023/01/22 04:06:30;;;;;;;1.23;1.23;;;;;;;;;;5001885;28;20050;-91
2023/01/22 04:08:56;;;;;;;1.27;1.25;;;;;;;;;;5017072;28;20046;-90
2023/01/22 04:11:23;;;;;;;2.95;2.70;;;;;;;;;;5017648;28;20061;-91
2023/01/22 04:13:49;;;;;;;4.63;2.50;;;;;;;;;;5016961;28;20400;-91
2023/01/22 04:16:16;;;;;;;1.95;1.85;;;;;;;;;;5016540;28;20092;-90
2023/01/22 04:18:42;;;;;;;2.60;2.50;;;;;;;;;;5016982;28;20462;-91
2023/01/22 04:21:10;;;;;;;1.35;1.25;;;;;;;;;;5017365;28;20050;-93
2023/01/22 04:23:37;;;;;;;4.82;1.95;;;;;;;;;;5015726;28;20054;-89
2023/01/22 04:26:03;;;;;;;4.57;4.38;;;;;;;;;;5017860;28;20053;-90
2023/01/22 04:28:30;;;;;;;1.48;1.42;;;;;;;;;;5017289;28;20100;-91
2023/01/22 04:30:57;;;;;;;1.58;1.48;;;;;;;;;;5017227;28;20754;-90
2023/01/22 04:33:23;;;;;;;1.58;1.48;;;;;;;;;;5016230;28;20062;-90
2023/01/22 04:35:50;;;;;;;1.38;1.38;;;;;;;;;;5016362;28;20049;-91
2023/01/22 04:38:18;;;;;;;1.70;1.60;;;;;;;;;;5016794;28;20046;-91
2023/01/22 04:40:44;;;;;;;2.33;2.22;;;;;;;;;;5016312;28;20108;-91
2023/01/22 04:43:11;;;;;;;2.45;2.35;;;;;;;;;;5016928;28;20054;-91
2023/01/22 04:45:37;;;;;;;3.40;2.03;;;;;;;;;;5016427;28;20096;-92
2023/01/22 04:48:04;;;;;;;1.00;1.00;;;;;;;;;;5016330;28;20046;-90
2023/01/22 04:50:32;;;;;;;5.47;2.97;;;;;;;;;;5015872;28;20100;-90
2023/01/22 04:52:59;;;;;;;1.48;1.45;;;;;;;;;;5016179;28;20050;-91
2023/01/22 04:55:27;;;;;;;1.45;1.35;;;;;;;;;;5016042;28;20042;-90
2023/01/22 04:57:55;;;;;;;2.70;2.38;;;;;;;;;;5006155;28;20500;-91
2023/01/22 05:00:21;;;;;;;3.33;2.90;;;;;;;;;;4996267;28;20141;-89
2023/01/22 05:02:48;;;;;;;4.28;1.83;;;;;;;;;;4996559;28;20047;-90
2023/01/22 05:05:14;;;;;;;1.20;1.15;;;;;;;;;;4996456;28;20479;-90
2023/01/22 05:07:41;;;;;;;1.98;1.73;;;;;;;;;;4996514;28;20042;-90
2023/01/22 05:10:08;;;;;;;1.60;1.50;;;;;;;;;;4991293;28;20042;-90
2023/01/22 05:12:36;;;;;;;4.28;3.65;;;;;;;;;;4996432;28;20062;-92
2023/01/22 05:15:02;;;;;;;4.10;2.47;;;;;;;;;;5002053;28;20104;-91
2023/01/22 05:17:29;;;;;;;2.63;2.42;;;;;;;;;;5015573;28;20542;-91
2023/01/22 05:19:55;;;;;;;3.97;3.67;;;;;;;;;;5015836;28;20045;-93
2023/01/22 05:22:22;;;;;;;8.55;2.40;;;;;;;;;;5004710;28;20050;-90
2023/01/22 05:24:48;;;;;;;2.78;2.58;;;;;;;;;;4996139;28;20057;-89
2023/01/22 05:27:15;;;;;;;3.03;2.65;;;;;;;;;;4995841;28;20490;-90
2023/01/22 05:29:43;;;;;;;1.73;1.63;;;;;;;;;;4995738;28;20046;-89
2023/01/22 05:32:09;;;;;;;2.60;1.85;;;;;;;;;;4997086;28;20105;-89
2023/01/22 05:34:36;;;;;;;2.35;2.22;;;;;;;;;;4991430;28;20451;-89
2023/01/22 05:37:03;;;;;;;1.60;1.50;;;;;;;;;;4975556;28;20057;-90
2023/01/22 05:39:29;;;;;;;1.35;1.33;;;;;;;;;;4976075;28;20097;-90
2023/01/22 05:41:56;;;;;;;2.45;2.30;;;;;;;;;;4976427;28;20456;-90
2023/01/22 05:44:22;;;;;;;3.33;3.00;;;;;;;;;;4976554;28;20452;-89
2023/01/22 05:46:50;;;;;;;1.88;1.77;;;;;;;;;;4975692;28;20054;-89
2023/01/22 05:49:17;;;;;;;4.47;4.18;;;;;;;;;;4994068;28;20097;-90
2023/01/22 05:51:43;;;;;;;9.02;2.47;;;;;;;;;;4995177;28;20046;-90
2023/01/22 05:54:10;;;;;;;2.13;1.92;;;;;;;;;;4995397;28;20054;-89
2023/01/22 05:56:36;;;;;;;4.93;2.65;;;;;;;;;;4995465;28;20051;-89
2023/01/22 05:59:03;;;;;;;2.50;2.30;;;;;;;;;;4995187;28;20120;-90
2023/01/22 06:01:29;;;;;;;3.05;2.85;;;;;;;;;;4995264;28;20046;-88
2023/01/22 06:03:57;;;;;;;1.98;1.88;;;;;;;;;;4995120;28;20545;-89
2023/01/22 06:06:24;;;;;;;2.67;2.55;;;;;;;;;;4997896;28;20101;-89
2023/01/22 06:08:51;;;;;;;2.25;2.15;;;;;;;;;;4995475;28;20093;-90
2023/01/22 06:11:18;;;;;;;2.17;1.77;;;;;;;;;;4995426;28;20053;-90
2023/01/22 06:13:45;;;;;;;2.05;1.85;;;;;;;;;;4995594;28;20467;-90
2023/01/22 06:16:11;;;;;;;5.40;3.38;;;;;;;;;;4995431;28;20054;-90
2023/01/22 06:18:38;;;;;;;2.33;2.20;;;;;;;;;;4995546;28;20508;-90
2023/01/22 06:21:07;;;;;;;2.28;2.17;;;;;;;;;;4995823;28;20049;-90
2023/01/22 06:23:33;;;;;;;3.83;3.60;;;;;;;;;;4995744;28;20455;-89
2023/01/22 06:26:01;;;;;;;3.75;3.30;;;;;;;;;;5019105;28;20116;-88
2023/01/22 06:28:28;;;;;;;4.28;2.70;;;;;;;;;;5022711;28;20073;-90
2023/01/22 06:30:56;;;;;;;4.28;2.97;;;;;;;;;;5021244;28;20109;-91
2023/01/22 06:33:22;;;;;;;3.63;1.92;;;;;;;;;;5022561;28;20077;-88
2023/01/22 06:35:52;;;;;;;1.77;1.67;;;;;;;;;;5021824;28;20046;-88
2023/01/22 06:38:20;;;;;;;2.53;2.10;;;;;;;;;;5017932;28;20050;-89
2023/01/22 06:40:50;;;;;;;2.88;2.10;;;;;;;;;;5014231;28;20454;-88
2023/01/22 06:43:17;;;;;;;4.00;2.60;;;;;;;;;;5014111;28;20046;-89
2023/01/22 06:45:43;;;;;;;6.97;2.40;;;;;;;;;;5013985;28;20046;-88
2023/01/22 06:48:09;;;;;;;3.08;2.88;;;;;;;;;;5013880;28;20488;-89
2023/01/22 06:50:36;;;;;;;2.47;2.28;;;;;;;;;;5014361;28;20116;-88
2023/01/22 06:53:04;;;;;;;5.35;2.88;;;;;;;;;;5014695;28;20050;-89
2023/01/22 06:55:32;;;;;;;1.90;1.80;;;;;;;;;;5014251;28;20053;-89
2023/01/22 06:57:59;;;;;;;2.95;2.75;;;;;;;;;;5013976;28;20120;-90
2023/01/22 07:00:25;;;;;;;3.45;3.17;;;;;;;;;;5014076;28;20042;-89
2023/01/22 07:02:53;;;;;;;2.55;2.35;;;;;;;;;;5013978;28;20046;-88
2023/01/22 07:05:19;;;;;;;2.50;2.40;;;;;;;;;;5014049;28;20058;-89
2023/01/22 07:07:46;;;;;;;3.08;2.88;;;;;;;;;;5013298;28;20511;-88
2023/01/22 07:10:13;;;;;;;2.13;2.03;;;;;;;;;;5013748;28;20072;-89
2023/01/22 07:12:41;;;;;;;3.25;2.55;;;;;;;;;;5013850;28;20057;-89
2023/01/22 07:15:08;;;;;;;2.83;2.72;;;;;;;;;;5016891;28;20050;-89
2023/01/22 07:17:36;;;;;;;4.32;4.13;;;;;;;;;;5017613;28;20046;-89
2023/01/22 07:20:03;;;;;;;2.83;2.60;;;;;;;;;;5017793;28;20081;-89
2023/01/22 07:22:30;;;;;;;2.33;2.08;;;;;;;;;;5017926;28;20046;-89
2023/01/22 07:24:56;;;;;;;1.73;1.63;;;;;;;;;;5018056;28;20103;-89
2023/01/22 07:27:23;;;;;;;2.25;2.15;;;;;;;;;;5017443;28;20073;-88
2023/01/22 07:29:51;;;;;;;2.70;2.45;;;;;;;;;;5017218;28;20100;-88
2023/01/22 07:32:17;;;;;;;1.40;1.30;;;;;;;;;;5017802;28;20109;-89
2023/01/22 07:34:44;;;;;;;2.13;1.92;;;;;;;;;;5017350;28;20096;-89
2023/01/22 07:37:10;;;;;;;3.30;2.92;;;;;;;;;;5017163;28;20490;-89
2023/01/22 07:39:37;;;;;;;2.88;2.78;;;;;;;;;;5017655;28;20053;-89
2023/01/22 07:42:03;;;;;;;2.47;2.38;;;;;;;;;;5017487;28;20523;-89
2023/01/22 07:44:30;;;;;;;3.22;3.03;;;;;;;;;;5017073;28;20112;-89
2023/01/22 07:46:57;;;;;;;2.70;2.50;;;;;;;;;;5016842;28;20104;-89
2023/01/22 07:49:24;;;;;;;2.25;2.15;;;;;;;;;;5017494;28;20046;-89
2023/01/22 07:51:51;;;;;;;4.18;3.97;;;;;;;;;;5016779;28;20054;-89
2023/01/22 07:54:18;;;;;;;2.72;2.53;;;;;;;;;;5016282;28;20491;-88
2023/01/22 07:56:45;;;;;;;2.35;2.25;;;;;;;;;;5017256;28;20054;-88
2023/01/22 07:59:11;;;;;;;2.88;2.67;;;;;;;;;;5017282;28;20054;-90
2023/01/22 08:01:38;;;;;;;2.90;2.80;;;;;;;;;;5016583;28;20100;-89
2023/01/22 08:04:06;;;;;;;3.45;3.25;;;;;;;;;;5016959;28;20107;-89
2023/01/22 08:06:32;;;;;;;3.05;2.05;;;;;;;;;;5016419;28;20054;-89
2023/01/22 08:08:59;;;;;;;2.67;2.50;;;;;;;;;;5016765;28;20054;-89
2023/01/22 08:11:26;;;;;;;1.92;1.83;;;;;;;;;;5020168;28;20462;-89
2023/01/22 08:13:53;;;;;;;3.85;3.13;;;;;;;;;;5016740;28;20046;-89
2023/01/22 08:16:20;;;;;;;3.35;3.08;;;;;;;;;;5016665;28;20081;-88
2023/01/22 08:18:46;;;;;;;4.30;4.00;;;;;;;;;;5016109;28;20054;-89
2023/01/22 08:21:14;;;;;;;3.08;2.88;;;;;;;;;;5016733;28;20100;-89
2023/01/22 08:23:41;;;;;;;4.13;3.83;;;;;;;;;;5023511;28;20053;-90
2023/01/22 08:26:07;;;;;;;4.05;3.55;;;;;;;;;;5023820;28;20400;-89
2023/01/22 08:28:34;;;;;;;5.57;5.18;;;;;;;;;;5016513;28;20100;-89
2023/01/22 08:31:01;;;;;;;4.75;4.45;;;;;;;;;;5016271;28;20622;-91
2023/01/22 08:33:28;;;;;;;5.45;5.00;;;;;;;;;;5017299;28;20042;-88
2023/01/22 08:35:55;;;;;;;6.47;5.90;;;;;;;;;;5015836;28;20050;-88
2023/01/22 08:38:23;;;;;;;10.85;9.65;;;;;;;;;;5016149;28;20490;-88
2023/01/22 08:40:49;;;;;;;10.55;8.90;;;;;;;;;;5017299;28;20057;-90
2023/01/22 08:43:16;;;;;;;14.15;9.50;;;;;;;;;;5004920;28;20046;-90
2023/01/22 08:45:43;;;;;;;11.15;7.80;;;;;;;;;;4996513;28;20050;-90
2023/01/22 08:48:09;;;;;;;5.47;5.00;;;;;;;;;;4996303;28;20109;-89
2023/01/22 08:50:36;;;;;;;6.10;5.57;;;;;;;;;;4996421;28;20101;-88
2023/01/22 08:53:02;;;;;;;4.03;3.80;;;;;;;;;;4995263;28;20050;-88
2023/01/22 08:55:30;;;;;;;2.97;2.78;;;;;;;;;;4995478;28;20112;-88
2023/01/22 08:57:56;;;;;;;4.75;4.53;;;;;;;;;;4996086;28;20062;-88
2023/01/22 09:00:23;;;;;;;8.77;4.85;;;;;;;;;;4996216;28;20120;-89
2023/01/22 09:02:50;;;;;;;9.15;4.40;;;;;;;;;;4996243;28;20054;-89
2023/01/22 09:05:16;;;;;;;5.13;4.60;;;;;;;;;;4995981;28;20054;-89
2023/01/22 09:07:43;;;;;;;4.43;4.03;;;;;;;;;;4996073;28;20058;-89
2023/01/22 09:10:11;;;;;;;6.07;5.47;;;;;;;;;;4995026;28;20077;-89
2023/01/22 09:12:39;;;;;;;5.28;4.60;;;;;;;;;;4996398;28;20515;-88
2023/01/22 09:15:06;;;;;;;4.45;4.15;;;;;;;;;;4996149;28;20455;-88
2023/01/22 09:17:33;;;;;;;5.13;4.68;;;;;;;;;;4996483;28;20462;-89
2023/01/22 09:19:59;;;;;;;6.95;5.25;;;;;;;;;;4995946;28;20105;-89
2023/01/22 09:22:26;;;;;;;3.72;3.40;;;;;;;;;;4995365;28;20050;-88
2023/01/22 09:24:53;;;;;;;3.95;3.65;;;;;;;;;;4995576;28;20054;-88
2023/01/22 09:27:20;;;;;;;6.70;6.15;;;;;;;;;;4995577;28;20105;-89
2023/01/22 09:29:48;;;;;;;5.97;5.20;;;;;;;;;;4995852;28;20519;-89
2023/01/22 09:32:14;;;;;;;4.60;4.20;;;;;;;;;;4995812;28;20050;-89
2023/01/22 09:34:41;;;;;;;4.05;3.67;;;;;;;;;;4996064;28;20050;-89
2023/01/22 09:37:08;;;;;;;5.32;4.15;;;;;;;;;;4994741;28;20534;-89
2023/01/22 09:39:35;;;;;;;7.53;4.40;;;;;;;;;;4997021;28;20050;-89
2023/01/22 09:42:02;;;;;;;5.45;3.92;;;;;;;;;;4996840;28;20122;-89
2023/01/22 09:44:31;;;;;;;11.85;4.55;;;;;;;;;;4995473;28;20105;-89
2023/01/22 09:47:01;;;;;;;6.10;3.45;;;;;;;;;;4994733;28;20046;-89
2023/01/22 09:49:29;;;;;;;3.75;3.47;;;;;;;;;;4995515;28;20105;-89
2023/01/22 09:51:56;;;;;;;6.55;5.95;;;;;;;;;;4996371;28;20058;-88
2023/01/22 09:54:23;;;;;;;7.72;5.78;;;;;;;;;;4996320;28;20054;-89
2023/01/22 09:56:51;;;;;;;5.88;4.65;;;;;;;;;;4996252;28;20058;-88
2023/01/22 09:59:19;;;;;;;3.33;2.83;;;;;;;;;;4995465;28;20066;-89
2023/01/22 10:01:46;;;;;;;4.68;4.28;;;;;;;;;;4995167;28;20046;-90
2023/01/22 10:04:20;;;;;;;5.60;5.18;;;;;;;;;;4995435;28;20152;-89
2023/01/22 10:06:47;;;;;;;5.93;5.43;;;;;;;;;;4995530;28;20054;-90
2023/01/22 10:09:17;;;;;;;4.38;3.90;;;;;;;;;;4996869;28;20093;-91
2023/01/22 10:11:45;;;;;;;4.47;3.95;;;;;;;;;;4995826;28;20057;-89
2023/01/22 10:14:14;;;;;;;4.85;4.55;;;;;;;;;;4995505;28;20061;-90
2023/01/22 10:16:40;;;;;;;4.90;4.60;;;;;;;;;;4995777;28;20496;-89
2023/01/22 10:19:19;;;;;;;4.43;4.13;;;;;;;;;;4995875;28;20116;-90
2023/01/22 10:21:49;;;;;;;5.72;4.93;;;;;;;;;;4995577;28;20042;-89
2023/01/22 10:24:15;;;;;;;2.40;2.30;;;;;;;;;;4995468;28;20050;-89
2023/01/22 10:26:44;;;;;;;4.60;4.20;;;;;;;;;;4995351;28;20097;-88
2023/01/22 10:29:13;;;;;;;6.80;3.17;;;;;;;;;;4995174;28;20047;-88
2023/01/22 10:31:45;;;;;;;2.85;2.67;;;;;;;;;;4996831;28;20113;-90
2023/01/22 11:11:14;;;;;;;4.90;4.60;;;;;;;;;;4921892;26;20489;-88
2023/01/22 11:13:45;;;;;;;4.40;4.10;;;;;;;;;;4947692;29;20478;-89
2023/01/22 11:16:15;;;;;;;4.10;3.70;;;;;;;;;;4944398;29;20067;-89
2023/01/22 11:18:43;;;;;;;3.67;3.38;;;;;;;;;;4946732;29;20569;-89
2023/01/22 11:21:13;;;;;;;5.13;4.70;;;;;;;;;;4946714;29;20052;-89
2023/01/22 11:23:45;;;;;;;5.13;4.72;;;;;;;;;;4944235;29;20508;-89
2023/01/22 11:26:16;;;;;;;4.78;4.43;;;;;;;;;;4940987;29;20062;-90
2023/01/22 11:28:49;;;;;;;4.40;4.10;;;;;;;;;;4942075;29;20505;-91
2023/01/22 11:31:23;;;;;;;5.18;4.82;;;;;;;;;;4942170;29;20059;-90
2023/01/22 11:33:58;;;;;;;6.50;6.05;;;;;;;;;;4941049;29;20477;-91
2023/01/22 11:36:27;;;;;;;5.78;5.38;;;;;;;;;;4941037;29;20469;-90
2023/01/22 11:38:55;;;;;;;4.40;4.20;;;;;;;;;;4940510;29;20055;-89
2023/01/22 11:41:28;;;;;;;6.10;5.72;;;;;;;;;;4941128;29;20059;-92
2023/01/22 11:44:07;;;;;;;4.38;4.13;;;;;;;;;;4941347;29;20063;-90
2023/01/22 11:46:43;;;;;;;4.05;3.78;;;;;;;;;;4942237;29;20052;-90
2023/01/22 11:49:18;;;;;;;5.05;4.72;;;;;;;;;;4943042;29;20075;-91
2023/01/22 11:51:51;;;;;;;5.50;5.03;;;;;;;;;;4943994;29;20048;-91
2023/01/22 11:54:32;;;;;;;4.82;4.53;;;;;;;;;;4947733;29;20061;-90
2023/01/22 11:57:08;;;;;;;5.32;4.70;;;;;;;;;;4939278;29;20553;-91
2023/01/22 11:59:44;;;;;;;5.07;4.65;;;;;;;;;;4946252;28;20055;-90
2023/01/22 12:02:22;;;;;;;4.93;4.63;;;;;;;;;;4945314;29;20513;-90
2023/01/22 12:05:00;;;;;;;6.18;5.68;;;;;;;;;;4939554;29;20056;-90
2023/01/22 12:07:49;;;;;;;6.63;6.22;;;;;;;;;;4943948;29;20052;-89
2023/01/22 12:10:27;;;;;;;7.75;7.10;;;;;;;;;;4941091;28;20047;-90
2023/01/22 12:12:59;;;;;;;6.10;5.55;;;;;;;;;;4940277;29;20051;-91
2023/01/22 12:15:31;;;;;;;5.38;5.07;;;;;;;;;;4940111;29;20454;-91
2023/01/22 12:18:05;;;;;;;6.90;4.97;;;;;;;;;;4942074;29;20118;-90
2023/01/22 12:20:47;;;;;;;5.57;5.07;;;;;;;;;;4939674;29;20051;-91
2023/01/22 12:23:15;;;;;;;5.97;5.05;;;;;;;;;;4940036;29;20055;-91
2023/01/22 12:25:47;;;;;;;5.45;5.10;;;;;;;;;;4939667;29;20461;-90
2023/01/22 12:28:17;;;;;;;4.88;4.40;;;;;;;;;;4939876;29;20074;-91
2023/01/22 12:30:46;;;;;;;6.30;5.80;;;;;;;;;;4939731;29;20047;-90
2023/01/22 12:33:15;;;;;;;12.02;6.78;;;;;;;;;;4940069;29;20051;-90
2023/01/22 12:35:42;;;;;;;6.53;6.13;;;;;;;;;;4938879;29;20059;-90
2023/01/22 12:38:22;;;;;;;6.68;6.05;;;;;;;;;;4939697;29;20490;-90
2023/01/22 12:40:59;;;;;;;10.10;5.72;;;;;;;;;;4938890;29;20099;-89
2023/01/22 12:43:32;;;;;;;5.78;5.40;;;;;;;;;;4939030;29;20062;-89
2023/01/22 12:46:02;;;;;;;6.25;5.03;;;;;;;;;;4939004;29;20055;-90
2023/01/22 12:48:32;;;;;;;7.45;6.95;;;;;;;;;;4938394;29;20142;-88
2023/01/22 12:50:58;;;;;;;10.25;6.20;;;;;;;;;;4938976;29;20052;-90
2023/01/22 12:53:26;;;;;;;8.75;6.35;;;;;;;;;;4938216;29;20051;-90
2023/01/22 12:56:03;;;;;;;5.75;4.70;;;;;;;;;;4938367;29;20463;-90
2023/01/22 12:58:32;;;;;;;5.28;4.15;;;;;;;;;;4938517;29;20055;-90
2023/01/22 13:01:00;;;;;;;4.05;3.75;;;;;;;;;;4938517;29;20056;-90
2023/01/22 13:03:28;;;;;;;5.35;5.05;;;;;;;;;;4938534;29;20051;-90
2023/01/22 13:05:55;;;;;;;5.65;5.25;;;;;;;;;;4938517;29;20052;-90
2023/01/22 13:08:34;;;;;;;3.45;3.15;;;;;;;;;;4938276;29;20055;-90
2023/01/22 13:11:02;;;;;;;4.80;4.40;;;;;;;;;;4937870;29;20143;-90
2023/01/22 13:13:30;;;;;;;7.63;5.80;;;;;;;;;;4938225;29;20111;-90
2023/01/22 13:16:00;;;;;;;3.85;3.65;;;;;;;;;;4938074;29;20051;-90
2023/01/22 13:18:29;;;;;;;6.18;5.68;;;;;;;;;;4938112;29;20059;-90
2023/01/22 13:21:02;;;;;;;7.22;6.55;;;;;;;;;;4937892;29;20069;-90
2023/01/22 13:23:30;;;;;;;4.38;4.07;;;;;;;;;;4938052;29;20457;-90
2023/01/22 13:25:57;;;;;;;5.05;4.72;;;;;;;;;;4937908;29;20051;-90
2023/01/22 13:28:25;;;;;;;5.88;5.40;;;;;;;;;;4937742;29;20123;-90
2023/01/22 13:31:00;;;;;;;4.03;3.83;;;;;;;;;;4937931;29;20055;-90
2023/01/22 13:33:27;;;;;;;4.15;3.85;;;;;;;;;;4937717;29;20098;-90
2023/01/22 13:35:53;;;;;;;5.97;5.57;;;;;;;;;;4938198;29;20111;-90
2023/01/22 13:38:21;;;;;;;7.57;7.15;;;;;;;;;;4938242;29;20088;-91
2023/01/22 13:40:49;;;;;;;4.18;3.88;;;;;;;;;;4937656;29;20054;-91
2023/01/22 13:43:16;;;;;;;4.97;4.57;;;;;;;;;;4938104;29;20075;-91
2023/01/22 13:45:43;;;;;;;4.53;4.22;;;;;;;;;;4938948;29;20059;-90
2023/01/22 13:48:17;;;;;;;5.05;4.65;;;;;;;;;;4939976;29;20063;-90
2023/01/22 13:50:46;;;;;;;6.47;5.97;;;;;;;;;;4946023;29;20462;-91
2023/01/22 13:53:23;;;;;;;4.43;4.13;;;;;;;;;;4944111;29;20052;-90
2023/01/22 13:55:50;;;;;;;4.15;3.95;;;;;;;;;;4945374;29;20391;-89
2023/01/22 13:58:43;;;;;;;4.82;3.55;;;;;;;;;;4944871;29;20181;-92
2023/01/22 14:01:10;;;;;;;5.65;5.43;;;;;;;;;;4884540;29;20049;-92
2023/01/22 14:03:38;;;;;;;4.10;3.95;;;;;;;;;;4879079;29;20591;-91
2023/01/22 14:06:06;;;;;;;3.28;3.17;;;;;;;;;;4879160;29;20057;-92
2023/01/22 14:08:43;;;;;;;3.00;2.88;;;;;;;;;;4862337;29;20189;-91
2023/01/22 14:11:10;;;;;;;3.72;3.53;;;;;;;;;;4860553;29;20105;-92
2023/01/22 14:13:39;;;;;;;3.45;3.30;;;;;;;;;;4860657;29;20056;-92
2023/01/22 14:16:06;;;;;;;2.33;2.22;;;;;;;;;;4860335;29;20045;-90
2023/01/22 14:18:33;;;;;;;3.42;2.70;;;;;;;;;;4860495;29;20049;-92
2023/01/22 14:21:01;;;;;;;2.85;2.75;;;;;;;;;;4860562;29;20046;-91
2023/01/22 14:23:28;;;;;;;2.50;2.40;;;;;;;;;;4860784;29;20062;-93
2023/01/22 14:25:55;;;;;;;3.03;2.83;;;;;;;;;;4860103;29;20050;-92
2023/01/22 14:28:22;;;;;;;3.25;3.15;;;;;;;;;;4860011;29;20133;-91
2023/01/22 14:30:49;;;;;;;2.92;2.83;;;;;;;;;;4859484;29;20053;-92
2023/01/22 14:33:18;;;;;;;2.67;2.58;;;;;;;;;;4859493;29;20473;-92
2023/01/22 14:35:45;;;;;;;1.83;1.73;;;;;;;;;;4859609;29;20512;-92
2023/01/22 14:38:13;;;;;;;2.15;2.05;;;;;;;;;;4924307;29;20107;-92
2023/01/22 14:40:40;;;;;;;3.30;3.20;;;;;;;;;;4936948;29;20051;-91
2023/01/22 14:43:06;;;;;;;2.25;2.15;;;;;;;;;;4953372;29;20126;-91
2023/01/22 14:45:33;;;;;;;2.85;2.65;;;;;;;;;;4955535;29;20405;-91
2023/01/22 14:48:00;;;;;;;4.75;4.45;;;;;;;;;;4955931;29;20051;-91
2023/01/22 14:50:27;;;;;;;2.35;2.25;;;;;;;;;;4956184;29;20133;-92
2023/01/22 14:52:53;;;;;;;2.45;2.35;;;;;;;;;;4955724;29;20055;-91
2023/01/22 14:55:21;;;;;;;2.55;2.40;;;;;;;;;;4955952;29;20102;-93
2023/01/22 14:57:48;;;;;;;1.38;1.38;;;;;;;;;;4955528;29;20055;-92
2023/01/22 15:00:16;;;;;;;2.40;2.30;;;;;;;;;;4955993;29;20102;-93
2023/01/22 15:02:46;;;;;;;3.20;3.00;;;;;;;;;;4962590;29;20445;-92
2023/01/22 15:05:13;;;;;;;1.75;1.65;;;;;;;;;;4962827;29;20054;-91
2023/01/22 15:07:39;;;;;;;2.85;2.70;;;;;;;;;;4944468;29;20122;-91
2023/01/22 15:10:07;;;;;;;4.10;3.90;;;;;;;;;;4941263;29;20110;-90
2023/01/22 15:12:35;;;;;;;2.60;2.45;;;;;;;;;;4942416;29;20055;-91
2023/01/22 15:15:02;;;;;;;2.45;2.35;;;;;;;;;;4942258;29;20076;-93
2023/01/22 15:17:29;;;;;;;2.40;2.30;;;;;;;;;;4942918;29;20119;-92
2023/01/22 15:19:56;;;;;;;2.25;2.15;;;;;;;;;;4942580;29;20048;-92
2023/01/22 15:22:22;;;;;;;4.20;4.00;;;;;;;;;;4945103;29;20051;-92
2023/01/22 15:24:49;;;;;;;1.95;1.85;;;;;;;;;;4946658;29;20560;-90
2023/01/22 15:27:17;;;;;;;3.63;3.42;;;;;;;;;;4945399;29;20052;-90
2023/01/22 15:29:45;;;;;;;3.55;3.35;;;;;;;;;;4946269;29;20051;-88
2023/01/22 15:32:12;;;;;;;2.67;2.47;;;;;;;;;;4947549;29;20056;-89